createdAt,value
2019-06-01T00:06:13.729Z,15.8
2019-06-01T00:22:57.067Z,15.5
2019-06-01T00:39:40.286Z,15.2
2019-06-01T00:56:23.241Z,15.2
2019-06-01T01:13:06.139Z,14.9
2019-06-01T01:29:49.004Z,14.9
2019-06-01T01:46:31.314Z,14.6
2019-06-01T02:03:13.354Z,14.6
2019-06-01T02:19:56.075Z,14.6
2019-06-01T02:36:37.315Z,14.2
2019-06-01T02:53:19.146Z,14.2
2019-06-01T03:10:00.933Z,13.9
2019-06-01T03:26:42.803Z,13.9
2019-06-01T03:43:23.429Z,13.9
2019-06-01T04:00:05.065Z,13.9
2019-06-01T04:16:46.995Z,14.2
2019-06-01T04:30:09.492Z,14.9
2019-06-01T04:46:51.959Z,15.2
2019-06-01T05:03:35.101Z,15.2
2019-06-01T05:20:18.376Z,15.8
2019-06-01T05:30:20.479Z,16.5
2019-06-01T05:43:43.754Z,17.1
2019-06-01T05:57:07.390Z,17.8
2019-06-01T06:03:51.865Z,18.4
2019-06-01T06:17:16.227Z,19.0
2019-06-01T06:27:18.576Z,19.7
2019-06-01T06:37:22.134Z,20.3
2019-06-01T06:54:09.723Z,21.0
2019-06-01T07:10:57.583Z,21.3
2019-06-01T07:27:45.877Z,21.6
2019-06-01T07:44:34.391Z,21.6
2019-06-01T08:01:25.164Z,22.2
2019-06-01T08:18:12.679Z,22.6
2019-06-01T08:35:08.417Z,22.6
2019-06-01T08:51:51.978Z,22.9
2019-06-01T09:08:41.924Z,23.2
2019-06-01T09:25:32.255Z,23.5
2019-06-01T09:42:22.764Z,23.8
2019-06-01T09:59:13.617Z,23.8
2019-06-01T10:16:04.555Z,24.2
2019-06-01T10:32:55.663Z,24.5
2019-06-01T10:49:47.236Z,24.8
2019-06-01T11:06:44.910Z,25.1
2019-06-01T11:20:08.828Z,25.4
2019-06-01T11:37:05.557Z,25.4
2019-06-01T22:45:30.267Z,19.4
2019-06-01T23:02:16.735Z,19.4
2019-06-01T23:15:41.907Z,18.7
2019-06-01T23:32:28.492Z,18.4
2019-06-01T23:49:13.239Z,18.1
